SVR4659 URWW-UWKD
Flight info
| Callsign | SVR4659 |
|---|---|
| Flight time | 1h 36m |
| Altitude | 35000 |
| Route | RODUN1E RODUN R807 UROBO P135 DAFOS T789 SONUM SONUM1S |
| Aircraft | A21N/M-SDE3FGHIRWY/LB1 |
Departure
| Time | 2026-05-07 18:13 |
|---|---|
| Airport | Volgograd International Airport (URWW) |
Arrival
| Time | 2026-05-07 19:50 |
|---|---|
| Airport | Kazan International Airport (UWKD) |
| Time | Latitude | Longitude | Altitude | Speed | Heading |
|---|---|---|---|---|---|
| 2026-05-07 18:00 | 48.78979 | 44.35182 | 472 ft | 0 kts | 339° |
| 2026-05-07 18:06 | 48.78977 | 44.35183 | 471 ft | 2 kts | 340° |
| 2026-05-07 18:07 | 48.78965 | 44.35195 | 471 ft | 2 kts | 312° |
| 2026-05-07 18:07 | 48.78956 | 44.35214 | 471 ft | 2 kts | 292° |
| 2026-05-07 18:07 | 48.78952 | 44.35236 | 471 ft | 2 kts | 271° |
| 2026-05-07 18:07 | 48.78956 | 44.35265 | 471 ft | 1 kts | 245° |
| 2026-05-07 18:08 | 48.78957 | 44.35269 | 471 ft | 0 kts | 245° |
| 2026-05-07 18:09 | 48.78954 | 44.35260 | 471 ft | 4 kts | 246° |
| 2026-05-07 18:10 | 48.78926 | 44.35152 | 471 ft | 12 kts | 240° |
| 2026-05-07 18:10 | 48.78844 | 44.35133 | 469 ft | 13 kts | 162° |
| 2026-05-07 18:10 | 48.78750 | 44.35180 | 468 ft | 14 kts | 161° |
| 2026-05-07 18:10 | 48.78689 | 44.35211 | 468 ft | 0 kts | 162° |
| 2026-05-07 18:11 | 48.78660 | 44.35225 | 468 ft | 10 kts | 161° |
| 2026-05-07 18:11 | 48.78585 | 44.35250 | 468 ft | 11 kts | 197° |
| 2026-05-07 18:11 | 48.78543 | 44.35183 | 467 ft | 0 kts | 242° |
| 2026-05-07 18:12 | 48.78524 | 44.35126 | 466 ft | 30 kts | 244° |
| 2026-05-07 18:13 | 48.78317 | 44.34473 | 456 ft | 104 kts | 245° |
| 2026-05-07 18:13 | 48.77902 | 44.33176 | 429 ft | 165 kts | 244° |
| 2026-05-07 18:13 | 48.77340 | 44.31457 | 737 ft | 186 kts | 244° |
| 2026-05-07 18:13 | 48.76622 | 44.29185 | 1693 ft | 180 kts | 244° |
| 2026-05-07 18:14 | 48.76265 | 44.28070 | 2097 ft | 182 kts | 244° |
| 2026-05-07 18:14 | 48.75700 | 44.26303 | 2642 ft | 194 kts | 244° |
| 2026-05-07 18:14 | 48.75087 | 44.24386 | 3112 ft | 210 kts | 244° |
| 2026-05-07 18:14 | 48.74583 | 44.22269 | 3532 ft | 228 kts | 264° |
| 2026-05-07 18:15 | 48.74866 | 44.19805 | 3716 ft | 247 kts | 299° |
| 2026-05-07 18:15 | 48.76069 | 44.17906 | 3740 ft | 260 kts | 332° |
| 2026-05-07 18:15 | 48.77822 | 44.17333 | 3739 ft | 263 kts | 6° |
| 2026-05-07 18:15 | 48.79504 | 44.18369 | 3915 ft | 270 kts | 37° |
| 2026-05-07 18:16 | 48.80987 | 44.20140 | 4803 ft | 272 kts | 36° |
| 2026-05-07 18:16 | 48.82507 | 44.21787 | 5767 ft | 271 kts | 34° |
| 2026-05-07 18:16 | 48.84052 | 44.23416 | 6600 ft | 274 kts | 34° |
| 2026-05-07 18:16 | 48.85618 | 44.25068 | 7400 ft | 278 kts | 34° |
| 2026-05-07 18:17 | 48.87195 | 44.26739 | 8184 ft | 281 kts | 34° |
| 2026-05-07 18:17 | 48.88789 | 44.28436 | 8951 ft | 284 kts | 34° |
| 2026-05-07 18:17 | 48.90410 | 44.30167 | 9702 ft | 287 kts | 34° |
| 2026-05-07 18:17 | 48.92616 | 44.32528 | 10458 ft | 300 kts | 34° |
| 2026-05-07 18:18 | 48.93760 | 44.33755 | 10684 ft | 312 kts | 34° |
| 2026-05-07 18:18 | 48.95578 | 44.35706 | 11002 ft | 329 kts | 34° |
| 2026-05-07 18:18 | 48.97503 | 44.37776 | 11454 ft | 341 kts | 35° |
| 2026-05-07 18:18 | 48.99426 | 44.39846 | 12130 ft | 345 kts | 35° |
| 2026-05-07 18:19 | 49.01392 | 44.41963 | 12841 ft | 348 kts | 35° |
| 2026-05-07 18:19 | 49.03360 | 44.44087 | 13512 ft | 351 kts | 35° |
| 2026-05-07 18:19 | 49.05356 | 44.46241 | 14167 ft | 355 kts | 35° |
| 2026-05-07 18:19 | 49.08050 | 44.49153 | 15019 ft | 359 kts | 35° |
| 2026-05-07 18:20 | 49.09394 | 44.50607 | 15432 ft | 361 kts | 35° |
| 2026-05-07 18:20 | 49.11464 | 44.52849 | 16051 ft | 365 kts | 35° |
| 2026-05-07 18:20 | 49.13532 | 44.55092 | 16652 ft | 368 kts | 35° |
| 2026-05-07 18:20 | 49.15620 | 44.57357 | 17240 ft | 371 kts | 35° |
| 2026-05-07 18:21 | 49.17744 | 44.59665 | 17819 ft | 375 kts | 35° |
| 2026-05-07 18:21 | 49.19866 | 44.61973 | 18379 ft | 378 kts | 35° |
| 2026-05-07 18:21 | 49.21995 | 44.64291 | 18923 ft | 381 kts | 35° |
| 2026-05-07 18:21 | 49.24169 | 44.66661 | 19462 ft | 384 kts | 36° |
| 2026-05-07 18:22 | 49.26358 | 44.69049 | 19990 ft | 387 kts | 36° |
| 2026-05-07 18:22 | 49.27802 | 44.70627 | 20329 ft | 389 kts | 36° |
| 2026-05-07 18:22 | 49.30733 | 44.73831 | 20997 ft | 393 kts | 36° |
| 2026-05-07 18:22 | 49.32980 | 44.76292 | 21491 ft | 396 kts | 36° |
| 2026-05-07 18:23 | 49.35216 | 44.78743 | 21967 ft | 399 kts | 36° |
| 2026-05-07 18:23 | 49.37456 | 44.81202 | 22430 ft | 402 kts | 36° |
| 2026-05-07 18:23 | 49.39751 | 44.83724 | 22889 ft | 405 kts | 36° |
| 2026-05-07 18:23 | 49.42030 | 44.86230 | 23329 ft | 407 kts | 36° |
| 2026-05-07 18:24 | 49.44320 | 44.88753 | 23755 ft | 410 kts | 36° |
| 2026-05-07 18:24 | 49.46655 | 44.91328 | 24174 ft | 413 kts | 36° |
| 2026-05-07 18:24 | 49.48969 | 44.93884 | 24573 ft | 415 kts | 36° |
| 2026-05-07 18:24 | 49.51318 | 44.96481 | 24965 ft | 418 kts | 36° |
| 2026-05-07 18:25 | 49.53695 | 44.99113 | 25345 ft | 420 kts | 36° |
| 2026-05-07 18:25 | 49.56049 | 45.01723 | 25711 ft | 422 kts | 36° |
| 2026-05-07 18:25 | 49.58427 | 45.04364 | 26066 ft | 425 kts | 36° |
| 2026-05-07 18:25 | 49.60842 | 45.07048 | 26411 ft | 427 kts | 36° |
| 2026-05-07 18:26 | 49.63238 | 45.09713 | 26742 ft | 429 kts | 35° |
| 2026-05-07 18:26 | 49.65768 | 45.12220 | 27059 ft | 431 kts | 29° |
| 2026-05-07 18:26 | 49.68460 | 45.14258 | 27372 ft | 433 kts | 22° |
| 2026-05-07 18:26 | 49.71280 | 45.15812 | 27674 ft | 435 kts | 17° |
| 2026-05-07 18:27 | 49.74185 | 45.17121 | 27977 ft | 437 kts | 15° |
| 2026-05-07 18:27 | 49.77101 | 45.18378 | 28263 ft | 439 kts | 15° |
| 2026-05-07 18:27 | 49.80085 | 45.19659 | 28547 ft | 441 kts | 15° |
| 2026-05-07 18:27 | 49.83056 | 45.20945 | 28825 ft | 443 kts | 15° |
| 2026-05-07 18:28 | 49.86029 | 45.22242 | 29094 ft | 445 kts | 15° |
| 2026-05-07 18:28 | 49.89027 | 45.23557 | 29354 ft | 447 kts | 15° |
| 2026-05-07 18:28 | 49.91234 | 45.24528 | 29540 ft | 448 kts | 15° |
| 2026-05-07 18:28 | 49.94799 | 45.26101 | 29910 ft | 448 kts | 15° |
| 2026-05-07 18:29 | 49.97803 | 45.27428 | 30276 ft | 447 kts | 15° |
| 2026-05-07 18:29 | 50.00812 | 45.28750 | 30625 ft | 446 kts | 15° |
| 2026-05-07 18:29 | 50.03730 | 45.29859 | 30932 ft | 445 kts | 12° |
| 2026-05-07 18:29 | 50.07716 | 45.31225 | 31335 ft | 444 kts | 12° |
| 2026-05-07 18:30 | 50.09084 | 45.31685 | 31470 ft | 444 kts | 12° |
| 2026-05-07 18:30 | 50.12173 | 45.32722 | 31781 ft | 443 kts | 12° |
| 2026-05-07 18:30 | 50.15185 | 45.33737 | 32075 ft | 442 kts | 12° |
| 2026-05-07 18:30 | 50.18247 | 45.34774 | 32355 ft | 442 kts | 12° |
| 2026-05-07 18:31 | 50.21214 | 45.35783 | 32617 ft | 441 kts | 12° |
| 2026-05-07 18:31 | 50.24206 | 45.36803 | 32872 ft | 441 kts | 12° |
| 2026-05-07 18:31 | 50.27185 | 45.37821 | 33107 ft | 441 kts | 12° |
| 2026-05-07 18:31 | 50.30184 | 45.38847 | 33309 ft | 441 kts | 12° |
| 2026-05-07 18:32 | 50.33199 | 45.39880 | 33489 ft | 442 kts | 12° |
| 2026-05-07 18:32 | 50.37944 | 45.41510 | 33765 ft | 444 kts | 12° |
| 2026-05-07 18:32 | 50.40958 | 45.42547 | 33941 ft | 444 kts | 12° |
| 2026-05-07 18:33 | 50.43992 | 45.43592 | 34117 ft | 445 kts | 12° |
| 2026-05-07 18:33 | 50.46978 | 45.44622 | 34280 ft | 445 kts | 12° |
| 2026-05-07 18:33 | 50.49924 | 45.45639 | 34434 ft | 446 kts | 12° |
| 2026-05-07 18:33 | 50.52713 | 45.46604 | 34565 ft | 447 kts | 12° |
| 2026-05-07 18:34 | 50.55727 | 45.47649 | 34948 ft | 448 kts | 12° |
| 2026-05-07 18:34 | 50.58734 | 45.48694 | 35327 ft | 446 kts | 12° |
| 2026-05-07 18:34 | 50.61771 | 45.49750 | 35752 ft | 443 kts | 11° |
| 2026-05-07 18:34 | 50.64768 | 45.50794 | 36061 ft | 444 kts | 11° |
| 2026-05-07 18:35 | 50.67747 | 45.51831 | 35078 ft | 440 kts | 11° |
| 2026-05-07 18:35 | 50.70699 | 45.52860 | 34619 ft | 431 kts | 11° |
| 2026-05-07 18:35 | 50.73628 | 45.53883 | 34396 ft | 427 kts | 11° |
| 2026-05-07 18:35 | 50.76458 | 45.54872 | 34295 ft | 420 kts | 11° |
| 2026-05-07 18:36 | 50.79305 | 45.55869 | 34634 ft | 415 kts | 11° |
| 2026-05-07 18:36 | 50.82096 | 45.56862 | 34802 ft | 415 kts | 11° |
| 2026-05-07 18:36 | 50.84935 | 45.57879 | 34886 ft | 418 kts | 12° |
| 2026-05-07 18:37 | 50.90678 | 45.59944 | 35023 ft | 427 kts | 12° |
| 2026-05-07 18:37 | 50.96485 | 45.62036 | 35088 ft | 430 kts | 11° |
| 2026-05-07 18:38 | 51.02211 | 45.64475 | 35023 ft | 423 kts | 17° |
| 2026-05-07 18:38 | 51.07704 | 45.67854 | 34971 ft | 423 kts | 23° |
| 2026-05-07 18:39 | 51.13062 | 45.71823 | 34948 ft | 424 kts | 24° |
| 2026-05-07 18:39 | 51.18118 | 45.75631 | 34936 ft | 424 kts | 24° |
| 2026-05-07 18:40 | 51.23459 | 45.79657 | 34944 ft | 425 kts | 24° |
| 2026-05-07 18:40 | 51.28776 | 45.83672 | 34951 ft | 426 kts | 24° |
| 2026-05-07 18:41 | 51.34137 | 45.87729 | 34952 ft | 427 kts | 24° |
| 2026-05-07 18:41 | 51.39442 | 45.91754 | 34951 ft | 427 kts | 24° |
| 2026-05-07 18:42 | 51.44570 | 45.95653 | 34949 ft | 428 kts | 24° |
| 2026-05-07 18:42 | 51.49939 | 45.99748 | 34948 ft | 429 kts | 24° |
| 2026-05-07 18:43 | 51.55313 | 46.03858 | 34945 ft | 429 kts | 24° |
| 2026-05-07 18:43 | 51.60670 | 46.08143 | 34943 ft | 429 kts | 25° |
| 2026-05-07 18:44 | 51.65967 | 46.12533 | 34945 ft | 429 kts | 25° |
| 2026-05-07 18:44 | 51.71299 | 46.16951 | 34947 ft | 430 kts | 25° |
| 2026-05-07 18:45 | 51.76600 | 46.21345 | 34945 ft | 430 kts | 25° |
| 2026-05-07 18:45 | 51.81896 | 46.25738 | 34946 ft | 430 kts | 25° |
| 2026-05-07 18:46 | 51.87235 | 46.30171 | 34948 ft | 431 kts | 25° |
| 2026-05-07 18:46 | 51.92533 | 46.34589 | 34949 ft | 431 kts | 25° |
| 2026-05-07 18:47 | 51.97834 | 46.39026 | 34949 ft | 431 kts | 25° |
| 2026-05-07 18:47 | 52.03164 | 46.43493 | 34949 ft | 431 kts | 25° |
| 2026-05-07 18:48 | 52.08458 | 46.47939 | 34947 ft | 431 kts | 25° |
| 2026-05-07 18:48 | 52.13790 | 46.52438 | 34947 ft | 432 kts | 25° |
| 2026-05-07 18:49 | 52.19139 | 46.56959 | 34946 ft | 432 kts | 25° |
| 2026-05-07 18:49 | 52.24468 | 46.61468 | 34946 ft | 433 kts | 25° |
| 2026-05-07 18:50 | 52.29785 | 46.65986 | 34947 ft | 433 kts | 26° |
| 2026-05-07 18:50 | 52.35141 | 46.70552 | 34949 ft | 434 kts | 26° |
| 2026-05-07 18:51 | 52.40471 | 46.75115 | 34950 ft | 434 kts | 26° |
| 2026-05-07 18:51 | 52.45822 | 46.79710 | 34952 ft | 435 kts | 26° |
| 2026-05-07 18:52 | 52.51170 | 46.84307 | 34953 ft | 435 kts | 26° |
| 2026-05-07 18:52 | 52.56529 | 46.88917 | 34954 ft | 436 kts | 26° |
| 2026-05-07 18:53 | 52.61869 | 46.93529 | 34956 ft | 436 kts | 26° |
| 2026-05-07 18:53 | 52.67233 | 46.98179 | 34957 ft | 436 kts | 26° |
| 2026-05-07 18:54 | 52.72601 | 47.02846 | 34959 ft | 436 kts | 26° |
| 2026-05-07 18:54 | 52.77969 | 47.07529 | 34959 ft | 437 kts | 26° |
| 2026-05-07 18:55 | 52.83316 | 47.12202 | 34960 ft | 437 kts | 26° |
| 2026-05-07 18:55 | 52.88700 | 47.16914 | 34962 ft | 438 kts | 26° |
| 2026-05-07 18:56 | 52.94045 | 47.21610 | 34963 ft | 438 kts | 26° |
| 2026-05-07 18:56 | 52.99422 | 47.26352 | 34965 ft | 439 kts | 26° |
| 2026-05-07 18:57 | 53.04783 | 47.31095 | 34966 ft | 439 kts | 26° |
| 2026-05-07 18:57 | 53.10165 | 47.35874 | 34966 ft | 439 kts | 26° |
| 2026-05-07 18:58 | 53.15555 | 47.40669 | 34966 ft | 440 kts | 26° |
| 2026-05-07 18:58 | 53.20878 | 47.45409 | 34966 ft | 440 kts | 26° |
| 2026-05-07 18:59 | 53.26326 | 47.50274 | 34966 ft | 441 kts | 26° |
| 2026-05-07 18:59 | 53.31711 | 47.55103 | 34967 ft | 442 kts | 26° |
| 2026-05-07 19:00 | 53.37115 | 47.59967 | 34969 ft | 442 kts | 26° |
| 2026-05-07 19:00 | 53.42522 | 47.64849 | 34971 ft | 443 kts | 26° |
| 2026-05-07 19:01 | 53.47974 | 47.69576 | 34973 ft | 443 kts | 24° |
| 2026-05-07 19:01 | 53.53673 | 47.73544 | 34974 ft | 443 kts | 20° |
| 2026-05-07 19:02 | 53.59421 | 47.77322 | 34973 ft | 444 kts | 20° |
| 2026-05-07 19:02 | 53.65133 | 47.81102 | 34971 ft | 445 kts | 20° |
| 2026-05-07 19:03 | 53.70949 | 47.84614 | 34970 ft | 445 kts | 15° |
| 2026-05-07 19:03 | 53.76913 | 47.87214 | 34970 ft | 445 kts | 12° |
| 2026-05-07 19:04 | 53.82880 | 47.90024 | 34969 ft | 446 kts | 18° |
| 2026-05-07 19:04 | 53.88626 | 47.93895 | 34970 ft | 447 kts | 22° |
| 2026-05-07 19:05 | 53.94308 | 47.98184 | 34971 ft | 448 kts | 23° |
| 2026-05-07 19:05 | 53.99968 | 48.02480 | 34971 ft | 448 kts | 23° |
| 2026-05-07 19:06 | 54.05627 | 48.06771 | 34971 ft | 448 kts | 22° |
| 2026-05-07 19:06 | 54.14191 | 48.13283 | 34972 ft | 448 kts | 22° |
| 2026-05-07 19:07 | 54.19357 | 48.17226 | 34443 ft | 452 kts | 22° |
| 2026-05-07 19:07 | 54.22171 | 48.19378 | 33830 ft | 455 kts | 22° |
| 2026-05-07 19:07 | 54.24886 | 48.21470 | 33195 ft | 457 kts | 24° |
| 2026-05-07 19:08 | 54.27423 | 48.23626 | 32456 ft | 460 kts | 26° |
| 2026-05-07 19:08 | 54.30187 | 48.26194 | 31658 ft | 460 kts | 28° |
| 2026-05-07 19:08 | 54.32735 | 48.28627 | 30930 ft | 460 kts | 28° |
| 2026-05-07 19:08 | 54.35529 | 48.31318 | 30186 ft | 460 kts | 28° |
| 2026-05-07 19:09 | 54.38218 | 48.33912 | 29434 ft | 461 kts | 28° |
| 2026-05-07 19:09 | 54.40516 | 48.36130 | 28933 ft | 455 kts | 28° |
| 2026-05-07 19:09 | 54.43241 | 48.38761 | 28418 ft | 447 kts | 28° |
| 2026-05-07 19:09 | 54.45932 | 48.41360 | 27923 ft | 439 kts | 28° |
| 2026-05-07 19:10 | 54.48560 | 48.43901 | 27478 ft | 436 kts | 28° |
| 2026-05-07 19:10 | 54.51197 | 48.46454 | 27048 ft | 433 kts | 28° |
| 2026-05-07 19:10 | 54.53789 | 48.48968 | 26603 ft | 429 kts | 28° |
| 2026-05-07 19:10 | 54.56354 | 48.51459 | 26147 ft | 425 kts | 28° |
| 2026-05-07 19:11 | 54.58936 | 48.53969 | 25675 ft | 422 kts | 28° |
| 2026-05-07 19:11 | 54.61463 | 48.56429 | 25199 ft | 419 kts | 28° |
| 2026-05-07 19:11 | 54.63970 | 48.58873 | 24714 ft | 415 kts | 28° |
| 2026-05-07 19:11 | 54.66465 | 48.61309 | 24233 ft | 412 kts | 28° |
| 2026-05-07 19:12 | 54.68951 | 48.63739 | 23936 ft | 405 kts | 28° |
| 2026-05-07 19:12 | 54.71386 | 48.66124 | 23862 ft | 406 kts | 29° |
| 2026-05-07 19:12 | 54.73830 | 48.68521 | 23827 ft | 407 kts | 29° |
| 2026-05-07 19:12 | 54.76297 | 48.70945 | 23832 ft | 407 kts | 29° |
| 2026-05-07 19:13 | 54.78652 | 48.73262 | 23868 ft | 407 kts | 29° |
| 2026-05-07 19:13 | 54.81137 | 48.75709 | 23934 ft | 406 kts | 29° |
| 2026-05-07 19:13 | 54.83526 | 48.78064 | 23958 ft | 389 kts | 29° |
| 2026-05-07 19:13 | 54.85831 | 48.80340 | 23971 ft | 373 kts | 29° |
| 2026-05-07 19:14 | 54.88067 | 48.82551 | 23979 ft | 369 kts | 28° |
| 2026-05-07 19:14 | 54.90296 | 48.84758 | 23979 ft | 370 kts | 28° |
| 2026-05-07 19:14 | 54.92511 | 48.86955 | 23979 ft | 370 kts | 28° |
| 2026-05-07 19:14 | 54.94739 | 48.89169 | 23978 ft | 370 kts | 28° |
| 2026-05-07 19:15 | 54.96974 | 48.91393 | 23977 ft | 370 kts | 28° |
| 2026-05-07 19:15 | 54.99196 | 48.93608 | 23977 ft | 371 kts | 28° |
| 2026-05-07 19:15 | 55.01451 | 48.95859 | 23981 ft | 371 kts | 28° |
| 2026-05-07 19:15 | 55.03664 | 48.98070 | 23986 ft | 371 kts | 28° |
| 2026-05-07 19:16 | 55.05905 | 49.00314 | 23992 ft | 372 kts | 28° |
| 2026-05-07 19:16 | 55.08132 | 49.02547 | 23996 ft | 372 kts | 28° |
| 2026-05-07 19:16 | 55.10366 | 49.04789 | 23998 ft | 372 kts | 28° |
| 2026-05-07 19:16 | 55.12613 | 49.07048 | 23999 ft | 372 kts | 28° |
| 2026-05-07 19:17 | 55.14777 | 49.09226 | 23999 ft | 372 kts | 28° |
| 2026-05-07 19:17 | 55.17023 | 49.11492 | 23999 ft | 372 kts | 30° |
| 2026-05-07 19:17 | 55.19033 | 49.14333 | 23974 ft | 375 kts | 50° |
| 2026-05-07 19:17 | 55.20206 | 49.18373 | 23986 ft | 378 kts | 75° |
| 2026-05-07 19:18 | 55.20324 | 49.22924 | 23994 ft | 380 kts | 99° |
| 2026-05-07 19:18 | 55.19409 | 49.27257 | 23995 ft | 381 kts | 122° |
| 2026-05-07 19:18 | 55.17639 | 49.30619 | 23995 ft | 380 kts | 145° |
| 2026-05-07 19:18 | 55.15293 | 49.32534 | 23995 ft | 378 kts | 168° |
| 2026-05-07 19:19 | 55.12680 | 49.32733 | 23994 ft | 375 kts | 191° |
| 2026-05-07 19:19 | 55.10268 | 49.31221 | 24004 ft | 372 kts | 210° |
| 2026-05-07 19:19 | 55.08012 | 49.28973 | 24005 ft | 372 kts | 211° |
| 2026-05-07 19:19 | 55.05790 | 49.26773 | 24002 ft | 373 kts | 210° |
| 2026-05-07 19:20 | 55.03519 | 49.24562 | 24000 ft | 373 kts | 210° |
| 2026-05-07 19:20 | 55.01242 | 49.22372 | 23998 ft | 373 kts | 210° |
| 2026-05-07 19:20 | 54.98982 | 49.20211 | 23998 ft | 373 kts | 210° |
| 2026-05-07 19:20 | 54.96746 | 49.17977 | 23990 ft | 373 kts | 216° |
| 2026-05-07 19:21 | 54.94984 | 49.14735 | 23977 ft | 370 kts | 241° |
| 2026-05-07 19:21 | 54.94153 | 49.10528 | 23988 ft | 368 kts | 264° |
| 2026-05-07 19:21 | 54.94298 | 49.06175 | 23991 ft | 367 kts | 285° |
| 2026-05-07 19:21 | 54.95375 | 49.02187 | 23992 ft | 366 kts | 307° |
| 2026-05-07 19:22 | 54.97203 | 48.99216 | 23994 ft | 366 kts | 328° |
| 2026-05-07 19:22 | 54.99576 | 48.97619 | 23997 ft | 367 kts | 350° |
| 2026-05-07 19:22 | 55.02095 | 48.97686 | 23998 ft | 369 kts | 12° |
| 2026-05-07 19:22 | 55.04477 | 48.99373 | 24010 ft | 371 kts | 28° |
| 2026-05-07 19:23 | 55.06704 | 49.01570 | 24006 ft | 371 kts | 28° |
| 2026-05-07 19:23 | 55.08968 | 49.03803 | 24002 ft | 371 kts | 28° |
| 2026-05-07 19:23 | 55.11200 | 49.05982 | 24001 ft | 372 kts | 27° |
| 2026-05-07 19:23 | 55.13572 | 49.07608 | 23981 ft | 369 kts | 9° |
| 2026-05-07 19:24 | 55.16126 | 49.07753 | 23838 ft | 366 kts | 349° |
| 2026-05-07 19:24 | 55.18498 | 49.06356 | 23621 ft | 363 kts | 329° |
| 2026-05-07 19:24 | 55.20468 | 49.03702 | 23414 ft | 361 kts | 316° |
| 2026-05-07 19:24 | 55.22267 | 49.00600 | 23193 ft | 359 kts | 314° |
| 2026-05-07 19:25 | 55.23994 | 48.97493 | 22963 ft | 358 kts | 314° |
| 2026-05-07 19:25 | 55.25704 | 48.94395 | 22707 ft | 356 kts | 314° |
| 2026-05-07 19:25 | 55.27437 | 48.91256 | 22448 ft | 355 kts | 314° |
| 2026-05-07 19:25 | 55.29132 | 48.88189 | 22191 ft | 350 kts | 314° |
| 2026-05-07 19:26 | 55.30805 | 48.85166 | 21840 ft | 347 kts | 314° |
| 2026-05-07 19:26 | 55.32495 | 48.82121 | 21409 ft | 345 kts | 314° |
| 2026-05-07 19:26 | 55.34148 | 48.79148 | 20982 ft | 342 kts | 314° |
| 2026-05-07 19:26 | 55.35808 | 48.76170 | 20549 ft | 341 kts | 314° |
| 2026-05-07 19:27 | 55.37453 | 48.73226 | 20106 ft | 339 kts | 314° |
| 2026-05-07 19:27 | 55.39101 | 48.70285 | 19645 ft | 338 kts | 314° |
| 2026-05-07 19:27 | 55.40730 | 48.67376 | 19187 ft | 336 kts | 314° |
| 2026-05-07 19:27 | 55.42364 | 48.64468 | 18727 ft | 334 kts | 314° |
| 2026-05-07 19:28 | 55.44000 | 48.61557 | 18264 ft | 332 kts | 314° |
| 2026-05-07 19:28 | 55.45622 | 48.58699 | 17803 ft | 330 kts | 316° |
| 2026-05-07 19:28 | 55.47522 | 48.56491 | 17328 ft | 331 kts | 337° |
| 2026-05-07 19:28 | 55.49756 | 48.55734 | 16871 ft | 333 kts | 359° |
| 2026-05-07 19:29 | 55.52065 | 48.56353 | 16420 ft | 334 kts | 12° |
| 2026-05-07 19:29 | 55.54297 | 48.57374 | 15965 ft | 333 kts | 13° |
| 2026-05-07 19:29 | 55.56507 | 48.58457 | 15512 ft | 332 kts | 14° |
| 2026-05-07 19:29 | 55.58729 | 48.59559 | 15055 ft | 331 kts | 14° |
| 2026-05-07 19:30 | 55.60934 | 48.60654 | 14600 ft | 330 kts | 14° |
| 2026-05-07 19:30 | 55.63131 | 48.61830 | 14137 ft | 330 kts | 21° |
| 2026-05-07 19:30 | 55.64967 | 48.64109 | 13667 ft | 332 kts | 49° |
| 2026-05-07 19:30 | 55.66005 | 48.67705 | 13215 ft | 332 kts | 76° |
| 2026-05-07 19:31 | 55.66111 | 48.71854 | 12765 ft | 346 kts | 99° |
| 2026-05-07 19:31 | 55.65469 | 48.75984 | 12324 ft | 352 kts | 108° |
| 2026-05-07 19:31 | 55.64726 | 48.80026 | 11877 ft | 350 kts | 107° |
| 2026-05-07 19:31 | 55.64013 | 48.84115 | 11426 ft | 346 kts | 106° |
| 2026-05-07 19:32 | 55.63337 | 48.88217 | 10969 ft | 343 kts | 105° |
| 2026-05-07 19:32 | 55.62666 | 48.92223 | 10514 ft | 340 kts | 109° |
| 2026-05-07 19:32 | 55.61408 | 48.95722 | 10037 ft | 338 kts | 137° |
| 2026-05-07 19:32 | 55.59401 | 48.97746 | 9585 ft | 335 kts | 165° |
| 2026-05-07 19:33 | 55.57119 | 48.97864 | 9130 ft | 330 kts | 194° |
| 2026-05-07 19:33 | 55.55096 | 48.96151 | 8689 ft | 325 kts | 217° |
| 2026-05-07 19:33 | 55.53348 | 48.93698 | 8248 ft | 322 kts | 219° |
| 2026-05-07 19:33 | 55.51722 | 48.91022 | 7984 ft | 312 kts | 235° |
| 2026-05-07 19:34 | 55.50827 | 48.87718 | 7977 ft | 292 kts | 258° |
| 2026-05-07 19:34 | 55.50713 | 48.84316 | 7977 ft | 271 kts | 280° |
| 2026-05-07 19:34 | 55.51258 | 48.81261 | 7980 ft | 258 kts | 301° |
| 2026-05-07 19:34 | 55.52324 | 48.78796 | 7919 ft | 252 kts | 320° |
| 2026-05-07 19:35 | 55.53766 | 48.77121 | 7563 ft | 250 kts | 339° |
| 2026-05-07 19:35 | 55.55452 | 48.76407 | 7155 ft | 249 kts | 359° |
| 2026-05-07 19:35 | 55.57133 | 48.76725 | 7000 ft | 246 kts | 18° |
| 2026-05-07 19:35 | 55.58682 | 48.78011 | 6999 ft | 248 kts | 36° |
| 2026-05-07 19:36 | 55.59917 | 48.80151 | 6996 ft | 250 kts | 55° |
| 2026-05-07 19:36 | 55.60680 | 48.82898 | 6997 ft | 251 kts | 72° |
| 2026-05-07 19:36 | 55.61163 | 48.85847 | 6995 ft | 251 kts | 70° |
| 2026-05-07 19:36 | 55.61941 | 48.88542 | 6990 ft | 250 kts | 52° |
| 2026-05-07 19:37 | 55.63194 | 48.90650 | 6992 ft | 249 kts | 32° |
| 2026-05-07 19:37 | 55.64795 | 48.91836 | 6994 ft | 250 kts | 12° |
| 2026-05-07 19:37 | 55.66515 | 48.91950 | 6996 ft | 251 kts | 352° |
| 2026-05-07 19:37 | 55.68176 | 48.90990 | 6995 ft | 252 kts | 332° |
| 2026-05-07 19:38 | 55.69549 | 48.89077 | 6995 ft | 255 kts | 312° |
| 2026-05-07 19:38 | 55.70475 | 48.86426 | 6994 ft | 257 kts | 292° |
| 2026-05-07 19:38 | 55.70830 | 48.83318 | 6995 ft | 259 kts | 271° |
| 2026-05-07 19:38 | 55.70559 | 48.80196 | 6932 ft | 257 kts | 251° |
| 2026-05-07 19:39 | 55.69706 | 48.77443 | 6594 ft | 258 kts | 230° |
| 2026-05-07 19:39 | 55.68367 | 48.75361 | 6212 ft | 258 kts | 214° |
| 2026-05-07 19:39 | 55.66869 | 48.73618 | 6002 ft | 254 kts | 212° |
| 2026-05-07 19:39 | 55.65393 | 48.71933 | 6000 ft | 256 kts | 213° |
| 2026-05-07 19:40 | 55.63902 | 48.70202 | 5998 ft | 256 kts | 213° |
| 2026-05-07 19:40 | 55.62433 | 48.68468 | 5997 ft | 256 kts | 214° |
| 2026-05-07 19:40 | 55.60949 | 48.66742 | 5994 ft | 256 kts | 208° |
| 2026-05-07 19:40 | 55.59284 | 48.65722 | 5991 ft | 255 kts | 186° |
| 2026-05-07 19:41 | 55.57519 | 48.65832 | 5994 ft | 254 kts | 166° |
| 2026-05-07 19:41 | 55.55898 | 48.67010 | 5995 ft | 252 kts | 145° |
| 2026-05-07 19:41 | 55.54619 | 48.69064 | 5996 ft | 250 kts | 126° |
| 2026-05-07 19:41 | 55.53810 | 48.71744 | 5997 ft | 249 kts | 106° |
| 2026-05-07 19:42 | 55.53556 | 48.74744 | 5997 ft | 247 kts | 86° |
| 2026-05-07 19:42 | 55.53883 | 48.77714 | 5996 ft | 246 kts | 68° |
| 2026-05-07 19:42 | 55.54736 | 48.80293 | 5957 ft | 242 kts | 49° |
| 2026-05-07 19:42 | 55.55985 | 48.82221 | 5615 ft | 243 kts | 35° |
| 2026-05-07 19:43 | 55.57388 | 48.83898 | 5220 ft | 244 kts | 33° |
| 2026-05-07 19:43 | 55.58803 | 48.85549 | 4881 ft | 243 kts | 34° |
| 2026-05-07 19:43 | 55.60199 | 48.87198 | 4567 ft | 240 kts | 34° |
| 2026-05-07 19:43 | 55.61568 | 48.88835 | 4263 ft | 236 kts | 34° |
| 2026-05-07 19:44 | 55.62898 | 48.90445 | 4023 ft | 230 kts | 35° |
| 2026-05-07 19:44 | 55.64182 | 48.92003 | 3998 ft | 219 kts | 35° |
| 2026-05-07 19:44 | 55.65426 | 48.93514 | 3998 ft | 219 kts | 36° |
| 2026-05-07 19:44 | 55.66689 | 48.95054 | 3995 ft | 218 kts | 36° |
| 2026-05-07 19:45 | 55.67920 | 48.96552 | 3821 ft | 213 kts | 36° |
| 2026-05-07 19:45 | 55.69085 | 48.97972 | 3619 ft | 195 kts | 36° |
| 2026-05-07 19:45 | 55.69953 | 48.99686 | 3179 ft | 188 kts | 68° |
| 2026-05-07 19:45 | 55.70041 | 49.01911 | 2797 ft | 181 kts | 99° |
| 2026-05-07 19:46 | 55.69660 | 49.03909 | 2682 ft | 162 kts | 113° |
| 2026-05-07 19:46 | 55.69126 | 49.05659 | 2685 ft | 159 kts | 117° |
| 2026-05-07 19:46 | 55.68567 | 49.07326 | 2717 ft | 158 kts | 118° |
| 2026-05-07 19:46 | 55.67990 | 49.08915 | 2556 ft | 148 kts | 120° |
| 2026-05-07 19:47 | 55.67422 | 49.10400 | 2346 ft | 142 kts | 120° |
| 2026-05-07 19:47 | 55.66867 | 49.11830 | 2170 ft | 141 kts | 120° |
| 2026-05-07 19:47 | 55.66312 | 49.13255 | 1995 ft | 141 kts | 120° |
| 2026-05-07 19:47 | 55.65753 | 49.14687 | 1814 ft | 141 kts | 120° |
| 2026-05-07 19:48 | 55.65194 | 49.16115 | 1630 ft | 141 kts | 121° |
| 2026-05-07 19:48 | 55.64632 | 49.17543 | 1440 ft | 142 kts | 122° |
| 2026-05-07 19:48 | 55.64066 | 49.18998 | 1231 ft | 144 kts | 122° |
| 2026-05-07 19:48 | 55.63499 | 49.20454 | 1044 ft | 145 kts | 123° |
| 2026-05-07 19:49 | 55.62921 | 49.21941 | 863 ft | 146 kts | 123° |
| 2026-05-07 19:49 | 55.62346 | 49.23435 | 674 ft | 146 kts | 123° |
| 2026-05-07 19:49 | 55.61771 | 49.24903 | 483 ft | 145 kts | 123° |
| 2026-05-07 19:49 | 55.61215 | 49.26363 | 419 ft | 126 kts | 123° |
| 2026-05-07 19:50 | 55.60884 | 49.27213 | 419 ft | 57 kts | 124° |
| 2026-05-07 19:50 | 55.60669 | 49.27766 | 419 ft | 51 kts | 122° |
| 2026-05-07 19:50 | 55.60475 | 49.28277 | 419 ft | 48 kts | 124° |
| 2026-05-07 19:50 | 55.60452 | 49.28650 | 419 ft | 30 kts | 34° |
| 2026-05-07 19:51 | 55.60580 | 49.28886 | 419 ft | 22 kts | 88° |
| 2026-05-07 19:51 | 55.60581 | 49.28908 | 419 ft | 0 kts | 89° |
| 2026-05-07 19:51 | 55.60581 | 49.28921 | 419 ft | 5 kts | 90° |
| 2026-05-07 19:52 | 55.60578 | 49.29071 | 419 ft | 15 kts | 79° |
| 2026-05-07 19:52 | 55.60651 | 49.29231 | 419 ft | 17 kts | 33° |
| 2026-05-07 19:52 | 55.60751 | 49.29342 | 419 ft | 16 kts | 26° |
| 2026-05-07 19:52 | 55.60813 | 49.29487 | 419 ft | 15 kts | 105° |
| 2026-05-07 19:53 | 55.60750 | 49.29640 | 419 ft | 15 kts | 126° |
| 2026-05-07 19:53 | 55.60691 | 49.29797 | 419 ft | 15 kts | 122° |
| 2026-05-07 19:53 | 55.60635 | 49.29945 | 419 ft | 10 kts | 123° |
| 2026-05-07 19:53 | 55.60646 | 49.30049 | 419 ft | 5 kts | 33° |
| 2026-05-07 19:54 | 55.60670 | 49.30077 | 419 ft | 0 kts | 33° |